Airfield :
LOGIN :

Register | Disclaimer

   EN    FR    IT 

 










Legend :    VFR   Marginal VFR   IFR   Intensive IFR   Very Intensive IFR
Visi :
Ceiling :
>= 8 km
>= 3000ft
5 to 8 km
1000 to 3000 ft
1500m to 5 km
500 to 1000 ft
800 to 1500m
200 to 500 ft
< 800m
< 200 ft
Symbols :   Thunderstorms  Fog  Heavy snow  Heavy precipitations  Wind > 20 kt
SIGMETs :     Misc.  Thunderstorms  Icing  Turbulence  Mountain Waves  Volcanic Ashes






- Airport Elevation : 939 ft


LKKB - Kbely Air Base

EXPIRED METARs :
  • 270330Z 21003KT 1500 BR OVC002 M00/M00 Q1022
  • 270300Z 21003KT 1500 BR OVC002 M00/M00 Q1022
  • 270230Z 17003KT 2000 BR OVC002 M00/M01 Q1022

TAF COR TAF LKKB
Valid from the 27 at 00:00 until the 28 at 00:00 UTC


262300Z 2700/2800 20004KT 2000 BR OVC003
TEMPO 2703/2707 1000 FZFG OVC002
BECMG 2708/2710 VRB02KT 6000 OVC006
TEMPO 2711/2717 8000 OVC010
BECMG 2719/2721 3000 BR OVC003



MET'MAP, your aeronautical weather chart ! - Copyright ORBIFLY December 2007 - Disclaimer

ORBIFLY MET'MAP TEAM :

Programming & Development : Alexandra Zaïnal
Concept & original design : Baudouin d'Aumeries
Assistance for programming : Marc-Olivier Méhu
Technical & hardware support : Manuel Goepfert

Contact : metmap@orbifly.com




SOURCES & CREDITS :

   NOAA